unimas.my alexa rank chart, unimas.my alexa rank daily changes

unimas.my alexa rank chart, unimas.my alexa rank daily changes

unimas.my
Actual rank:
20 935

RANK HISTORY

Date Rank Diff
2017/11/23 20 935 +136
2017/11/22 20 799 +47
2017/11/21 20 752 +102
2017/11/20 20 650 +404
2017/11/19 20 246 -87
2017/11/18 20 333 +162
2017/11/17 20 171 +191
2017/11/16 19 980 -56
2017/11/15 20 036 -65
2017/11/14 20 101 -32
2017/11/13 20 133 +108
2017/11/12 20 025 +23
2017/11/11 20 002 +145
2017/11/10 19 857 +128
2017/11/09 19 729 +24
2017/11/08 19 705 -148
2017/11/07 19 853 +28
2017/11/06 19 825 +250
2017/11/05 19 575 +239
2017/11/04 19 336 +100
2017/11/03 19 236 +83
2017/11/02 19 153 +94
2017/11/01 19 059 +177
2017/10/31 18 882 +85
2017/10/30 18 797 +223
2017/10/29 18 574 -112
2017/10/28 18 686 -20
2017/10/27 18 706 +41
2017/10/26 18 665 -7
2017/10/25 18 672 -219
2017/10/24 18 891 -372
2017/10/23 19 263 -203
2017/10/22 19 466 -118
2017/10/21 19 584 -138
2017/10/20 19 722 -381
2017/10/19 20 103 -135
2017/10/18 20 238 -442
2017/10/17 20 680 -349
2017/10/16 21 029 -185
2017/10/14 21 214 -159
2017/10/13 21 373 -178
2017/10/12 21 551 -219
2017/10/11 21 770 -570
2017/10/10 22 340 -446
2017/10/09 22 786 -426
2017/10/08 23 212 -219
2017/10/07 23 431 +127
2017/10/06 23 304 -128
2017/10/05 23 432 -736
2017/10/04 24 168 -568
2017/10/03 24 736 -691
2017/10/02 25 427 -578
2017/10/01 26 005 -851
2017/09/30 26 856 -661
2017/09/29 27 517 -463
2017/09/28 27 980 -825
2017/09/27 28 805 -931
2017/09/26 29 736 -754
2017/09/25 30 490 -383
2017/09/24 30 873

WIDGET FOR YOUR SITE

DOMAINS WITH THE NEAREST RANK

Domain Rank
icourse163.org 20 930
parcelforce.com 20 931
cerdas.com 20 932
lang-8.com 20 933
admiral78.net 20 934
unimas.my 20 935
wvtu.net 20 936
nginx.com 20 937
rexdl.com 20 938
ucoebanking.com 20 939
escavador.com 20 940

DOMAINS WITH THE NEAREST RANK BY TLD .my

Domain Rank
ukm.my 12 990
utm.my 14 076
hermo.my 15 099
usm.my 17 272
hongleongconnect.my 17 565
unimas.my 20 935
ezbuy.my 27 161
yes.my 30 188